createdAt,value
2023-09-15T00:01:04.192Z,15.62
2023-09-15T00:03:36.878Z,15.60
2023-09-15T00:06:05.314Z,15.60
2023-09-15T00:08:35.119Z,15.59
2023-09-15T00:11:03.127Z,15.58
2023-09-15T00:13:33.212Z,15.56
2023-09-15T00:16:01.208Z,15.55
2023-09-15T00:18:29.737Z,15.53
2023-09-15T00:20:57.594Z,15.54
2023-09-15T00:23:25.406Z,15.58
2023-09-15T00:25:55.895Z,15.59
2023-09-15T00:28:23.807Z,15.62
2023-09-15T00:30:51.699Z,15.65
2023-09-15T00:33:20.650Z,15.66
2023-09-15T00:35:48.570Z,15.70
2023-09-15T00:38:16.711Z,15.72
2023-09-15T00:40:44.467Z,15.69
2023-09-15T00:43:12.349Z,15.69
2023-09-15T00:45:40.506Z,15.73
2023-09-15T00:48:09.065Z,15.75
2023-09-15T00:50:37.045Z,15.73
2023-09-15T00:53:11.819Z,15.74
2023-09-15T00:55:39.940Z,15.77
2023-09-15T00:58:13.453Z,15.80
2023-09-15T01:00:43.745Z,15.85
2023-09-15T01:03:13.610Z,15.87
2023-09-15T01:05:43.016Z,15.90
2023-09-15T01:08:11.529Z,15.95
2023-09-15T01:10:39.851Z,15.99
2023-09-15T01:13:08.003Z,15.97
2023-09-15T01:15:47.308Z,15.93
2023-09-15T01:18:25.150Z,15.88
2023-09-15T01:21:15.015Z,15.78
2023-09-15T01:24:00.510Z,15.73
2023-09-15T01:26:53.578Z,15.73
2023-09-15T01:29:46.290Z,15.72
2023-09-15T01:32:17.469Z,15.71
2023-09-15T01:34:52.931Z,15.71
2023-09-15T01:37:23.036Z,15.73
2023-09-15T01:39:54.348Z,15.74
2023-09-15T01:42:24.664Z,15.77
2023-09-15T01:44:53.478Z,15.78
2023-09-15T01:47:23.219Z,15.77
2023-09-15T01:49:52.781Z,15.77
2023-09-15T01:52:23.992Z,15.79
2023-09-15T01:54:54.587Z,15.78
2023-09-15T01:57:23.316Z,15.77
2023-09-15T01:59:51.269Z,15.78
2023-09-15T02:02:19.126Z,15.76
2023-09-15T02:04:47.104Z,15.68
2023-09-15T02:07:14.974Z,15.64
2023-09-15T02:09:42.900Z,15.63
2023-09-15T02:12:10.979Z,15.64
2023-09-15T02:14:38.854Z,15.66
2023-09-15T02:17:07.681Z,15.68
2023-09-15T02:19:35.957Z,15.71
2023-09-15T02:22:05.474Z,15.75
2023-09-15T02:24:33.341Z,15.77
2023-09-15T02:27:01.662Z,15.73
2023-09-15T02:29:31.388Z,15.68
2023-09-15T02:36:18.770Z,15.55
2023-09-15T02:38:46.836Z,15.58
2023-09-15T02:41:14.902Z,15.62
2023-09-15T02:43:43.222Z,15.66
2023-09-15T02:46:11.347Z,15.68
2023-09-15T02:48:39.592Z,15.67
2023-09-15T02:51:08.910Z,15.65
2023-09-15T02:53:36.858Z,15.67
2023-09-15T02:56:06.139Z,15.70
2023-09-15T02:58:37.387Z,15.71
2023-09-15T03:01:15.916Z,15.70
2023-09-15T03:03:50.416Z,15.72
2023-09-15T03:06:18.551Z,15.76
2023-09-15T03:08:47.119Z,15.80
2023-09-15T03:11:18.129Z,15.84
2023-09-15T03:13:46.705Z,15.87
2023-09-15T03:16:15.133Z,15.87
2023-09-15T03:18:48.574Z,15.86
2023-09-15T03:21:20.765Z,15.85
2023-09-15T03:23:50.327Z,15.87
2023-09-15T03:26:18.624Z,15.89
2023-09-15T03:28:49.111Z,15.90
2023-09-15T03:31:17.868Z,15.92
2023-09-15T03:33:45.857Z,15.89
2023-09-15T03:36:13.979Z,15.87
2023-09-15T03:38:45.067Z,15.87
2023-09-15T03:41:13.485Z,15.86
2023-09-15T03:43:41.242Z,15.87
2023-09-15T03:46:10.125Z,15.89
2023-09-15T03:48:38.648Z,15.88
2023-09-15T03:51:06.516Z,15.86
2023-09-15T03:53:34.383Z,15.85
2023-09-15T03:56:02.552Z,15.84
2023-09-15T03:58:30.946Z,15.84
2023-09-15T04:00:58.817Z,15.85
2023-09-15T04:03:27.830Z,15.83
2023-09-15T04:05:55.759Z,15.83
2023-09-15T04:08:23.537Z,15.83
2023-09-15T04:10:51.367Z,15.85
2023-09-15T04:13:19.169Z,15.87
2023-09-15T04:15:46.953Z,15.85
2023-09-15T04:18:14.851Z,15.88
2023-09-15T04:20:46.608Z,15.90
2023-09-15T04:23:16.109Z,15.91
2023-09-15T04:25:44.459Z,15.86
2023-09-15T04:28:14.429Z,15.83
2023-09-15T04:30:43.807Z,15.84
2023-09-15T04:33:16.704Z,15.83
2023-09-15T04:35:45.365Z,15.85
2023-09-15T04:38:13.253Z,15.86
2023-09-15T04:40:42.797Z,15.90
2023-09-15T04:43:10.908Z,15.92
2023-09-15T04:45:39.744Z,15.98
2023-09-15T04:48:08.042Z,16.01
2023-09-15T04:50:39.079Z,16.02
2023-09-15T04:53:08.500Z,16.00
2023-09-15T04:55:36.859Z,15.95
2023-09-15T04:58:05.096Z,15.90
2023-09-15T05:00:35.982Z,15.91
2023-09-15T05:03:05.917Z,15.94
2023-09-15T05:05:33.912Z,15.99
2023-09-15T05:08:01.843Z,16.01
2023-09-15T05:10:30.294Z,16.03
2023-09-15T05:12:58.342Z,16.05
2023-09-15T05:15:26.778Z,16.08
2023-09-15T05:17:54.902Z,16.10
2023-09-15T05:20:22.868Z,16.06
2023-09-15T05:22:50.680Z,16.03
2023-09-15T05:25:18.501Z,16.05
2023-09-15T05:27:46.912Z,16.13
2023-09-15T05:30:16.537Z,16.20
2023-09-15T05:32:44.624Z,16.24
2023-09-15T05:35:12.478Z,16.26
2023-09-15T05:37:40.356Z,16.29
2023-09-15T05:40:09.515Z,16.31
2023-09-15T05:42:37.519Z,16.30
2023-09-15T05:45:05.926Z,16.30
2023-09-15T05:47:34.518Z,16.37
2023-09-15T05:50:05.545Z,16.46
2023-09-15T05:52:33.713Z,16.55
2023-09-15T05:55:01.618Z,16.66
2023-09-15T05:57:29.424Z,16.76
2023-09-15T05:59:57.379Z,16.86
2023-09-15T06:02:25.599Z,16.89
2023-09-15T06:04:54.671Z,16.93
2023-09-15T06:07:22.801Z,17.00
2023-09-15T06:09:50.651Z,17.10
2023-09-15T06:12:18.489Z,17.20
2023-09-15T06:14:46.712Z,17.27
2023-09-15T06:17:14.582Z,17.34
2023-09-15T06:19:42.404Z,17.41
2023-09-15T06:22:10.179Z,17.45
2023-09-15T06:24:38.040Z,17.53
2023-09-15T06:27:05.815Z,17.61
2023-09-15T06:29:35.005Z,17.67
2023-09-15T06:32:03.281Z,17.72
2023-09-15T06:34:31.330Z,17.72
2023-09-15T06:36:59.160Z,17.72
2023-09-15T06:39:27.900Z,17.78
2023-09-15T06:41:55.760Z,17.85
2023-09-15T06:44:24.296Z,17.93
2023-09-15T06:46:52.375Z,17.97
2023-09-15T06:49:23.155Z,18.04
2023-09-15T06:51:51.275Z,18.08
2023-09-15T06:54:19.043Z,18.14
2023-09-15T06:56:46.868Z,18.22
2023-09-15T06:59:14.921Z,18.33
2023-09-15T07:01:42.758Z,18.45
2023-09-15T07:04:14.303Z,18.55
2023-09-15T07:06:42.298Z,18.64
2023-09-15T07:09:10.128Z,18.71
2023-09-15T07:11:38.011Z,18.81
2023-09-15T07:14:05.882Z,18.92
2023-09-15T07:16:34.095Z,19.09
2023-09-15T07:19:01.955Z,19.23
2023-09-15T07:21:29.777Z,19.34
2023-09-15T07:24:00.428Z,19.49
2023-09-15T07:26:29.783Z,19.67
2023-09-15T07:28:57.764Z,19.73
2023-09-15T07:31:25.668Z,19.79
2023-09-15T07:33:53.736Z,19.87
2023-09-15T07:36:21.551Z,20.11
2023-09-15T07:38:49.367Z,20.33
2023-09-15T07:41:17.109Z,20.52
2023-09-15T07:43:44.980Z,20.60
2023-09-15T07:46:16.594Z,20.58
2023-09-15T07:48:44.560Z,20.62
2023-09-15T07:51:13.298Z,20.49
2023-09-15T07:53:41.115Z,20.37
2023-09-15T07:56:08.886Z,20.32
2023-09-15T07:58:36.702Z,20.32
2023-09-15T08:01:06.109Z,20.37
2023-09-15T08:03:33.982Z,20.50
2023-09-15T08:06:03.110Z,20.63
2023-09-15T08:08:31.208Z,20.71
2023-09-15T08:10:58.948Z,20.75
2023-09-15T08:13:27.162Z,20.82
2023-09-15T08:15:56.003Z,21.13
2023-09-15T08:18:24.217Z,21.45
2023-09-15T08:20:52.007Z,21.80
2023-09-15T08:23:19.842Z,21.84
2023-09-15T08:25:47.788Z,21.89
2023-09-15T08:28:15.921Z,21.93
2023-09-15T08:30:47.700Z,22.17
2023-09-15T08:33:15.451Z,22.37
2023-09-15T08:35:43.323Z,22.47
2023-09-15T08:38:12.187Z,22.63
2023-09-15T08:40:48.882Z,22.74
2023-09-15T08:43:17.504Z,22.85
2023-09-15T08:45:48.622Z,22.96
2023-09-15T08:48:23.187Z,23.03
2023-09-15T08:50:52.586Z,22.76
2023-09-15T08:53:20.931Z,22.71
2023-09-15T08:55:48.894Z,22.85
2023-09-15T08:58:16.956Z,22.86
2023-09-15T09:00:45.859Z,22.88
2023-09-15T09:03:16.689Z,22.88
2023-09-15T09:05:48.171Z,22.84
2023-09-15T09:08:17.888Z,22.80
2023-09-15T09:10:50.052Z,22.72
2023-09-15T09:13:33.619Z,22.66
2023-09-15T09:16:12.062Z,22.70
2023-09-15T09:18:39.970Z,22.74
2023-09-15T09:21:07.750Z,22.87
2023-09-15T09:23:35.654Z,22.97
2023-09-15T09:26:12.288Z,23.11
2023-09-15T09:28:40.841Z,23.33
2023-09-15T09:31:12.277Z,23.53
2023-09-15T09:33:43.273Z,23.74
2023-09-15T09:36:17.912Z,24.12
2023-09-15T09:38:48.210Z,24.50
2023-09-15T09:41:27.505Z,24.92
2023-09-15T09:43:56.801Z,25.35
2023-09-15T09:46:25.103Z,25.67
2023-09-15T09:48:53.468Z,25.91
2023-09-15T09:51:22.341Z,26.05
2023-09-15T09:53:54.095Z,26.22
2023-09-15T09:56:23.848Z,26.42
2023-09-15T09:58:51.607Z,26.67
2023-09-15T10:01:19.477Z,26.91
2023-09-15T10:03:47.753Z,27.16
2023-09-15T10:06:15.920Z,27.37
2023-09-15T10:08:46.974Z,27.58
2023-09-15T10:11:15.508Z,27.80
2023-09-15T10:13:43.614Z,27.77
2023-09-15T10:20:31.919Z,27.87
2023-09-15T10:23:00.416Z,27.74
2023-09-15T10:25:28.282Z,27.93
2023-09-15T10:27:56.330Z,28.04
2023-09-15T10:30:24.366Z,27.87
2023-09-15T10:32:52.293Z,27.94
2023-09-15T10:35:20.277Z,27.72
2023-09-15T10:37:48.560Z,27.24
2023-09-15T10:40:16.355Z,26.75
2023-09-15T10:42:49.631Z,26.32
2023-09-15T10:45:18.000Z,25.97
2023-09-15T10:47:56.743Z,25.71
2023-09-15T10:50:34.997Z,25.55
2023-09-15T10:53:10.258Z,25.45
2023-09-15T10:55:38.772Z,25.40
2023-09-15T10:58:06.641Z,25.41
2023-09-15T11:00:34.966Z,25.79
2023-09-15T11:03:05.175Z,26.46
2023-09-15T11:05:33.829Z,26.95
2023-09-15T11:08:02.167Z,27.48
2023-09-15T11:10:33.168Z,27.63
2023-09-15T11:13:04.975Z,27.38
2023-09-15T11:15:34.442Z,26.97
2023-09-15T11:18:03.347Z,26.62
2023-09-15T11:20:31.565Z,26.37
2023-09-15T11:22:59.451Z,26.44
2023-09-15T11:25:27.236Z,26.73
2023-09-15T11:27:55.420Z,27.12
2023-09-15T11:30:27.742Z,27.43
2023-09-15T11:32:56.357Z,27.72
2023-09-15T11:35:25.648Z,28.01
2023-09-15T11:37:54.226Z,28.15
2023-09-15T11:40:23.217Z,27.89
2023-09-15T11:43:00.796Z,27.67
2023-09-15T11:45:30.147Z,27.39
2023-09-15T11:48:00.279Z,26.97
2023-09-15T11:50:29.687Z,26.62
2023-09-15T11:52:57.586Z,26.46
2023-09-15T11:55:27.003Z,26.36
2023-09-15T11:58:00.114Z,26.17
2023-09-15T12:00:31.681Z,26.13
2023-09-15T12:03:00.729Z,26.06
2023-09-15T12:05:29.674Z,25.96
2023-09-15T12:07:58.907Z,25.96
2023-09-15T12:10:26.800Z,25.96
2023-09-15T12:12:58.559Z,25.91
2023-09-15T12:15:27.676Z,25.80
2023-09-15T12:17:57.410Z,25.71
2023-09-15T12:20:25.720Z,25.68
2023-09-15T12:22:53.969Z,25.62
2023-09-15T12:25:22.362Z,25.59
2023-09-15T12:27:50.225Z,25.63
2023-09-15T12:30:19.815Z,25.63
2023-09-15T12:32:48.940Z,25.64
2023-09-15T12:35:16.993Z,25.63
2023-09-15T12:37:46.364Z,25.75
2023-09-15T12:40:15.807Z,25.88
2023-09-15T12:42:45.061Z,26.04
2023-09-15T12:45:15.491Z,26.13
2023-09-15T12:47:43.490Z,26.22
2023-09-15T12:50:13.565Z,26.22
2023-09-15T12:52:41.825Z,26.14
2023-09-15T12:55:09.911Z,26.01
2023-09-15T12:57:37.745Z,25.84
2023-09-15T13:00:07.706Z,25.66
2023-09-15T13:02:35.978Z,25.48
2023-09-15T13:05:06.234Z,25.33
2023-09-15T13:07:37.937Z,25.18
2023-09-15T13:10:06.649Z,25.07
2023-09-15T13:12:34.654Z,25.07
2023-09-15T13:15:04.496Z,25.15
2023-09-15T13:17:32.320Z,25.32
2023-09-15T13:20:03.045Z,25.73
2023-09-15T13:22:30.888Z,26.39
2023-09-15T13:24:58.647Z,26.62
2023-09-15T13:27:26.942Z,26.65
2023-09-15T13:29:58.590Z,26.69
2023-09-15T13:32:27.749Z,26.94
2023-09-15T13:34:55.917Z,26.91
2023-09-15T13:37:24.059Z,26.83
2023-09-15T13:39:51.907Z,26.69
2023-09-15T13:42:33.916Z,26.51
2023-09-15T13:45:03.093Z,26.28
2023-09-15T13:47:35.287Z,26.03
2023-09-15T13:50:06.844Z,25.87
2023-09-15T13:52:34.815Z,25.75
2023-09-15T13:55:03.405Z,25.65
2023-09-15T13:57:31.275Z,25.55
2023-09-15T13:59:59.191Z,25.46
2023-09-15T14:02:27.622Z,25.41
2023-09-15T14:04:56.248Z,25.35
2023-09-15T14:07:25.227Z,25.27
2023-09-15T14:09:53.051Z,25.16
2023-09-15T14:12:20.994Z,25.06
2023-09-15T14:14:48.907Z,24.98
2023-09-15T14:17:16.683Z,24.88
2023-09-15T14:19:44.576Z,24.80
2023-09-15T14:22:12.428Z,24.70
2023-09-15T14:24:40.452Z,24.61
2023-09-15T14:27:08.344Z,24.52
2023-09-15T14:29:36.925Z,24.49
2023-09-15T14:32:04.961Z,24.43
2023-09-15T14:34:33.100Z,24.34
2023-09-15T14:37:01.605Z,24.28
2023-09-15T14:39:29.717Z,24.28
2023-09-15T14:41:58.212Z,24.30
2023-09-15T14:44:26.042Z,24.36
2023-09-15T14:46:55.347Z,24.51
2023-09-15T14:49:27.156Z,24.73
2023-09-15T14:51:55.290Z,24.94
2023-09-15T14:54:23.149Z,24.99
2023-09-15T14:56:54.087Z,24.94
2023-09-15T14:59:22.102Z,24.95
2023-09-15T15:01:49.945Z,24.91
2023-09-15T15:04:17.884Z,24.95
2023-09-15T15:06:45.855Z,25.17
2023-09-15T15:09:15.646Z,25.46
2023-09-15T15:11:45.363Z,25.52
2023-09-15T15:14:13.407Z,25.73
2023-09-15T15:16:41.286Z,25.98
2023-09-15T15:19:09.339Z,26.19
2023-09-15T15:21:37.509Z,26.29
2023-09-15T15:24:05.336Z,26.28
2023-09-15T15:26:33.180Z,27.08
2023-09-15T15:29:01.082Z,26.87
2023-09-15T15:31:28.997Z,26.47
2023-09-15T15:33:57.814Z,26.10
2023-09-15T15:36:27.770Z,25.73
2023-09-15T15:38:55.606Z,25.34
2023-09-15T15:41:23.556Z,25.05
2023-09-15T15:43:51.676Z,24.83
2023-09-15T15:46:20.979Z,24.64
2023-09-15T15:48:49.333Z,24.47
2023-09-15T15:51:17.769Z,24.30
2023-09-15T15:53:45.687Z,24.15
2023-09-15T15:56:13.592Z,24.10
2023-09-15T15:58:41.596Z,24.10
2023-09-15T16:01:09.754Z,24.05
2023-09-15T16:03:38.085Z,23.94
2023-09-15T16:06:06.274Z,23.80
2023-09-15T16:08:34.134Z,23.61
2023-09-15T16:11:03.490Z,23.45
2023-09-15T16:13:35.812Z,23.27
2023-09-15T16:16:05.589Z,23.09
2023-09-15T16:18:33.650Z,22.97
2023-09-15T16:21:01.669Z,23.39
2023-09-15T16:23:29.552Z,24.65
2023-09-15T16:25:59.332Z,25.03
2023-09-15T16:28:29.323Z,24.61
2023-09-15T16:30:57.262Z,24.24
2023-09-15T16:33:25.363Z,23.90
2023-09-15T16:36:06.878Z,23.60
2023-09-15T16:38:34.815Z,23.26
2023-09-15T16:41:02.702Z,22.96
2023-09-15T16:43:32.705Z,22.69
2023-09-15T16:46:00.744Z,22.44
2023-09-15T16:48:30.924Z,22.21
2023-09-15T16:50:59.183Z,21.97
2023-09-15T16:53:26.982Z,21.77
2023-09-15T16:55:55.626Z,21.59
2023-09-15T16:58:23.551Z,21.41
2023-09-15T17:00:55.073Z,21.22
2023-09-15T17:03:23.093Z,21.04
2023-09-15T17:05:51.460Z,20.88
2023-09-15T17:08:20.057Z,20.72
2023-09-15T17:10:48.250Z,20.57
2023-09-15T17:13:16.084Z,20.41
2023-09-15T17:15:49.072Z,20.28
2023-09-15T17:18:17.047Z,20.14
2023-09-15T17:20:44.950Z,20.00
2023-09-15T17:23:12.715Z,19.86
2023-09-15T17:25:40.527Z,19.73
2023-09-15T17:28:08.521Z,19.62
2023-09-15T17:30:36.357Z,19.50
2023-09-15T17:33:04.662Z,19.39
2023-09-15T17:35:32.533Z,19.31
2023-09-15T17:38:00.324Z,19.21
2023-09-15T17:40:28.062Z,19.11
2023-09-15T17:42:55.972Z,19.00
2023-09-15T17:45:24.973Z,18.88
2023-09-15T17:47:53.041Z,18.78
2023-09-15T17:50:21.078Z,18.71
2023-09-15T17:52:50.756Z,18.61
2023-09-15T17:55:20.374Z,18.53
2023-09-15T17:57:49.915Z,18.43
2023-09-15T18:00:20.547Z,18.34
2023-09-15T18:02:48.742Z,18.29
2023-09-15T18:05:17.070Z,18.25
2023-09-15T18:07:45.140Z,18.15
2023-09-15T18:10:13.108Z,18.04
2023-09-15T18:12:40.906Z,17.94
2023-09-15T18:15:11.574Z,17.87
2023-09-15T18:17:39.709Z,17.84
2023-09-15T18:20:10.537Z,17.82
2023-09-15T18:22:39.935Z,17.75
2023-09-15T18:25:09.840Z,17.71
2023-09-15T18:27:39.435Z,17.68
2023-09-15T18:30:07.931Z,17.66
2023-09-15T18:32:37.431Z,17.63
2023-09-15T18:35:06.195Z,17.54
2023-09-15T18:37:34.459Z,17.48
2023-09-15T18:40:02.709Z,17.43
2023-09-15T18:42:30.671Z,17.41
2023-09-15T18:44:58.402Z,17.40
2023-09-15T18:47:26.210Z,17.39
2023-09-15T18:49:54.267Z,17.36
2023-09-15T18:52:22.119Z,17.33
2023-09-15T18:54:49.971Z,17.28
2023-09-15T18:57:17.955Z,17.26
2023-09-15T18:59:46.496Z,17.21
2023-09-15T19:02:15.464Z,17.18
2023-09-15T19:04:43.263Z,17.15
2023-09-15T19:07:11.169Z,17.13
2023-09-15T19:09:39.016Z,17.11
2023-09-15T19:12:08.410Z,17.12
2023-09-15T19:14:37.713Z,17.14
2023-09-15T19:17:05.601Z,17.14
2023-09-15T19:19:33.506Z,17.13
2023-09-15T19:22:01.378Z,17.12
2023-09-15T19:24:30.922Z,17.08
2023-09-15T19:26:58.823Z,17.06
2023-09-15T19:29:27.819Z,17.05
2023-09-15T19:31:55.617Z,17.04
2023-09-15T19:34:23.693Z,17.00
2023-09-15T19:36:51.656Z,16.97
2023-09-15T19:39:19.480Z,16.94
2023-09-15T19:41:47.258Z,16.90
2023-09-15T19:44:15.581Z,16.87
2023-09-15T19:46:43.486Z,16.84
2023-09-15T19:49:11.311Z,16.81
2023-09-15T19:51:39.444Z,16.75
2023-09-15T19:54:07.423Z,16.69
2023-09-15T19:56:35.252Z,16.64
2023-09-15T19:59:03.055Z,16.56
2023-09-15T20:01:30.869Z,16.50
2023-09-15T20:03:58.756Z,16.46
2023-09-15T20:06:26.633Z,16.42
2023-09-15T20:08:59.507Z,16.36
2023-09-15T20:11:27.451Z,16.33
2023-09-15T20:13:57.662Z,16.29
2023-09-15T20:16:29.436Z,16.25
2023-09-15T20:18:57.415Z,16.20
2023-09-15T20:21:28.517Z,16.15
2023-09-15T20:23:59.379Z,16.11
2023-09-15T20:26:27.300Z,16.09
2023-09-15T20:28:57.122Z,16.07
2023-09-15T20:31:25.466Z,16.06
2023-09-15T20:33:53.225Z,16.04
2023-09-15T20:36:21.493Z,15.99
2023-09-15T20:38:49.536Z,15.98
2023-09-15T20:41:17.894Z,15.96
2023-09-15T20:43:45.654Z,15.93
2023-09-15T20:46:13.746Z,15.91
2023-09-15T20:48:44.339Z,15.88
2023-09-15T20:51:12.463Z,15.84
2023-09-15T20:53:40.307Z,15.80
2023-09-15T20:56:08.114Z,15.78
2023-09-15T20:58:37.679Z,15.77
2023-09-15T21:01:07.768Z,15.76
2023-09-15T21:03:37.047Z,15.75
2023-09-15T21:06:06.382Z,15.72
2023-09-15T21:08:34.156Z,15.71
2023-09-15T21:11:02.257Z,15.68
2023-09-15T21:13:30.228Z,15.68
2023-09-15T21:15:58.997Z,15.67
2023-09-15T21:18:26.964Z,15.66
2023-09-15T21:20:54.911Z,15.62
2023-09-15T21:23:22.681Z,15.56
2023-09-15T21:25:50.443Z,15.50
2023-09-15T21:28:18.590Z,15.44
2023-09-15T21:30:47.857Z,15.38
2023-09-15T21:33:16.646Z,15.36
2023-09-15T21:35:46.717Z,15.34
2023-09-15T21:38:15.532Z,15.32
2023-09-15T21:40:43.405Z,15.29
2023-09-15T21:43:11.237Z,15.27
2023-09-15T21:45:39.202Z,15.24
2023-09-15T21:48:07.604Z,15.24
2023-09-15T21:50:35.480Z,15.25
2023-09-15T21:53:05.754Z,15.23
2023-09-15T21:55:34.426Z,15.24
2023-09-15T21:58:02.293Z,15.28
2023-09-15T22:00:36.401Z,15.32
2023-09-15T22:03:04.705Z,15.37
2023-09-15T22:05:33.261Z,15.39
2023-09-15T22:08:03.830Z,15.42
2023-09-15T22:10:32.132Z,15.46
2023-09-15T22:13:00.010Z,15.51
2023-09-15T22:15:28.076Z,15.52
2023-09-15T22:17:55.930Z,15.53
2023-09-15T22:20:27.837Z,15.51
2023-09-15T22:22:56.791Z,15.49
2023-09-15T22:25:28.257Z,15.47
2023-09-15T22:27:56.177Z,15.47
2023-09-15T22:30:24.072Z,15.45
2023-09-15T22:32:52.832Z,15.46
2023-09-15T22:35:21.760Z,15.48
2023-09-15T22:37:50.487Z,15.45
2023-09-15T22:40:18.462Z,15.42
2023-09-15T22:42:46.253Z,15.40
2023-09-15T22:45:24.819Z,15.39
2023-09-15T22:47:59.146Z,15.37
2023-09-15T22:50:27.447Z,15.35
2023-09-15T22:52:55.289Z,15.34
2023-09-15T22:55:24.564Z,15.34
2023-09-15T22:57:52.435Z,15.34
2023-09-15T23:00:20.430Z,15.33
2023-09-15T23:02:50.821Z,15.26
2023-09-15T23:05:20.830Z,15.23
2023-09-15T23:07:48.704Z,15.22
2023-09-15T23:10:17.545Z,15.22
2023-09-15T23:12:45.551Z,15.20
2023-09-15T23:15:13.946Z,15.19
2023-09-15T23:17:41.838Z,15.16
2023-09-15T23:20:09.840Z,15.14
2023-09-15T23:22:37.719Z,15.11
2023-09-15T23:25:06.229Z,15.09
2023-09-15T23:27:35.325Z,15.08
2023-09-15T23:30:04.618Z,15.07
2023-09-15T23:32:33.326Z,15.05
2023-09-15T23:35:01.907Z,15.01
2023-09-15T23:37:30.085Z,15.02
2023-09-15T23:39:58.177Z,15.01
2023-09-15T23:42:26.155Z,15.01
2023-09-15T23:44:54.041Z,15.02
2023-09-15T23:47:21.906Z,15.04
2023-09-15T23:49:49.799Z,15.03
2023-09-15T23:52:17.566Z,15.02
2023-09-15T23:54:45.433Z,15.00
2023-09-15T23:57:13.332Z,14.96
2023-09-15T23:59:41.188Z,14.93
